createdAt,value
2018-04-13T00:00:49.319Z,10.10
2018-04-13T00:03:17.548Z,10.00
2018-04-13T00:05:45.001Z,10.00
2018-04-13T00:08:13.080Z,9.90
2018-04-13T00:10:40.529Z,9.90
2018-04-13T00:13:07.976Z,9.80
2018-04-13T00:15:35.449Z,9.70
2018-04-13T00:18:02.902Z,9.70
2018-04-13T00:20:30.383Z,9.70
2018-04-13T00:22:58.504Z,9.60
2018-04-13T00:25:25.956Z,9.50
2018-04-13T00:27:53.434Z,9.50
2018-04-13T00:30:20.896Z,9.50
2018-04-13T00:32:48.368Z,9.40
2018-04-13T00:35:15.824Z,9.30
2018-04-13T00:37:43.289Z,9.30
2018-04-13T00:40:10.740Z,9.30
2018-04-13T00:42:38.195Z,9.20
2018-04-13T00:45:05.664Z,9.20
2018-04-13T00:47:33.132Z,9.20
2018-04-13T00:52:35.179Z,9.10
2018-04-13T00:55:02.633Z,9.00
2018-04-13T00:57:30.100Z,8.90
2018-04-13T00:59:57.556Z,8.90
2018-04-13T01:02:25.017Z,8.90
2018-04-13T01:04:52.492Z,8.90
2018-04-13T01:07:20.725Z,9.00
2018-04-13T01:09:48.177Z,9.00
2018-04-13T01:12:15.652Z,9.00
2018-04-13T01:14:43.120Z,9.00
2018-04-13T01:17:10.584Z,8.90
2018-04-13T01:19:38.091Z,8.90
2018-04-13T01:22:05.552Z,8.90
2018-04-13T01:24:33.025Z,8.90
2018-04-13T01:27:00.493Z,8.90
2018-04-13T01:29:27.980Z,8.80
2018-04-13T01:31:56.213Z,8.90
2018-04-13T01:34:23.680Z,8.80
2018-04-13T01:36:51.169Z,8.90
2018-04-13T01:39:19.391Z,9.00
2018-04-13T01:41:46.868Z,9.00
2018-04-13T01:44:14.336Z,9.00
2018-04-13T01:46:41.800Z,9.00
2018-04-13T01:49:09.304Z,9.00
2018-04-13T01:51:36.784Z,9.00
2018-04-13T01:54:04.260Z,8.90
2018-04-13T01:56:31.721Z,8.90
2018-04-13T01:58:59.180Z,8.90
2018-04-13T02:01:26.660Z,8.90
2018-04-13T02:03:54.884Z,9.00
2018-04-13T02:06:22.352Z,9.00
2018-04-13T02:08:49.811Z,9.00
2018-04-13T02:11:17.287Z,9.10
2018-04-13T02:13:44.744Z,9.10
2018-04-13T02:16:12.196Z,9.10
2018-04-13T02:18:39.665Z,9.10
2018-04-13T02:21:07.136Z,9.10
2018-04-13T02:23:35.368Z,9.10
2018-04-13T02:26:02.847Z,9.10
2018-04-13T02:28:30.312Z,9.20
2018-04-13T02:30:58.548Z,9.20
2018-04-13T02:33:26.016Z,9.20
2018-04-13T02:35:54.371Z,9.20
2018-04-13T02:38:21.840Z,9.20
2018-04-13T02:40:49.300Z,9.30
2018-04-13T02:43:17.765Z,9.20
2018-04-13T02:45:45.223Z,9.20
2018-04-13T02:48:12.680Z,9.20
2018-04-13T02:50:40.170Z,9.20
2018-04-13T02:53:07.632Z,9.20
2018-04-13T02:55:35.121Z,9.20
2018-04-13T02:58:02.560Z,9.20
2018-04-13T03:00:30.776Z,9.10
2018-04-13T03:02:59.016Z,9.10
2018-04-13T03:05:27.252Z,9.10
2018-04-13T03:07:54.715Z,9.10
2018-04-13T03:10:22.190Z,9.10
2018-04-13T03:12:49.660Z,9.10
2018-04-13T03:15:17.901Z,9.10
2018-04-13T03:17:45.387Z,9.20
2018-04-13T03:20:12.840Z,9.10
2018-04-13T03:22:41.071Z,9.10
2018-04-13T03:25:08.523Z,9.00
2018-04-13T03:27:35.996Z,9.10
2018-04-13T03:30:03.468Z,9.00
2018-04-13T03:32:30.943Z,9.10
2018-04-13T03:34:58.396Z,9.10
2018-04-13T03:37:25.861Z,9.00
2018-04-13T03:39:54.101Z,9.00
2018-04-13T03:42:21.564Z,9.00
2018-04-13T03:44:49.020Z,9.00
2018-04-13T03:47:16.515Z,9.00
2018-04-13T03:49:44.755Z,8.80
2018-04-13T03:52:12.215Z,8.80
2018-04-13T03:54:39.685Z,8.70
2018-04-13T03:57:07.137Z,8.60
2018-04-13T03:59:34.614Z,8.60
2018-04-13T04:02:02.847Z,8.60
2018-04-13T04:04:30.325Z,8.60
2018-04-13T04:06:57.793Z,8.60
2018-04-13T04:09:26.036Z,8.60
2018-04-13T04:11:54.187Z,8.50
2018-04-13T04:14:21.639Z,8.50
2018-04-13T04:16:49.103Z,8.50
2018-04-13T04:19:17.204Z,8.40
2018-04-13T04:21:56.542Z,8.50
2018-04-13T04:24:35.995Z,8.50
2018-04-13T04:27:04.312Z,8.60
2018-04-13T04:29:31.762Z,8.60
2018-04-13T04:31:59.221Z,8.50
2018-04-13T04:34:26.688Z,8.50
2018-04-13T04:36:54.138Z,8.60
2018-04-13T04:39:21.599Z,8.60
2018-04-13T04:41:49.069Z,8.70
2018-04-13T04:44:16.570Z,8.70
2018-04-13T04:46:44.887Z,8.80
2018-04-13T04:49:12.329Z,8.80
2018-04-13T04:51:39.788Z,8.80
2018-04-13T04:54:07.261Z,8.90
2018-04-13T04:56:34.720Z,8.80
2018-04-13T04:59:02.204Z,8.80
2018-04-13T05:01:29.728Z,8.80
2018-04-13T05:03:57.204Z,8.70
2018-04-13T05:06:24.658Z,8.70
2018-04-13T05:08:52.489Z,8.70
2018-04-13T05:11:20.721Z,8.70
2018-04-13T05:13:48.182Z,8.70
2018-04-13T05:16:15.645Z,8.70
2018-04-13T05:18:43.113Z,8.60
2018-04-13T05:21:10.584Z,8.60
2018-04-13T05:23:38.821Z,8.60
2018-04-13T05:26:06.290Z,8.50
2018-04-13T05:28:33.753Z,8.60
2018-04-13T05:31:01.224Z,8.60
2018-04-13T05:33:29.548Z,8.60
2018-04-13T05:35:57.001Z,8.60
2018-04-13T05:38:24.456Z,8.60
2018-04-13T05:40:51.911Z,8.50
2018-04-13T05:43:19.391Z,8.60
2018-04-13T05:45:46.853Z,8.70
2018-04-13T05:48:14.313Z,8.80
2018-04-13T05:50:41.785Z,8.80
2018-04-13T05:53:09.271Z,8.80
2018-04-13T05:55:36.744Z,8.90
2018-04-13T05:58:04.206Z,8.90
2018-04-13T06:00:31.663Z,8.90
2018-04-13T06:02:59.118Z,8.90
2018-04-13T06:05:26.594Z,9.00
2018-04-13T06:07:54.131Z,9.10
2018-04-13T06:10:21.592Z,9.10
2018-04-13T06:12:49.048Z,9.20
2018-04-13T06:15:16.512Z,9.30
2018-04-13T06:17:43.964Z,9.40
2018-04-13T06:20:11.429Z,9.40
2018-04-13T06:22:38.885Z,9.50
2018-04-13T06:25:06.341Z,9.60
2018-04-13T06:27:33.821Z,9.60
2018-04-13T06:30:01.276Z,9.70
2018-04-13T06:32:28.742Z,9.80
2018-04-13T06:34:56.197Z,9.90
2018-04-13T06:37:23.664Z,10.00
2018-04-13T06:39:51.181Z,10.10
2018-04-13T06:42:18.637Z,10.20
2018-04-13T06:44:46.100Z,10.40
2018-04-13T06:47:13.568Z,10.60
2018-04-13T06:49:41.047Z,10.80
2018-04-13T06:52:08.524Z,11.00
2018-04-13T06:54:36.783Z,11.10
2018-04-13T06:57:04.250Z,11.10
2018-04-13T06:59:33.154Z,11.40
2018-04-13T07:02:01.377Z,11.40
2018-04-13T07:04:28.865Z,11.40
2018-04-13T07:06:56.340Z,11.50
2018-04-13T07:09:24.559Z,11.60
2018-04-13T07:11:52.041Z,11.60
2018-04-13T07:14:19.500Z,11.60
2018-04-13T07:16:46.965Z,11.60
2018-04-13T07:19:14.430Z,11.60
2018-04-13T07:21:42.663Z,11.70
2018-04-13T07:24:10.129Z,11.70
2018-04-13T07:26:37.628Z,11.70
2018-04-13T07:29:05.081Z,11.80
2018-04-13T07:31:33.337Z,11.60
2018-04-13T07:34:00.804Z,11.60
2018-04-13T07:36:29.042Z,11.80
2018-04-13T07:38:56.514Z,11.80
2018-04-13T07:41:23.985Z,11.90
2018-04-13T07:43:51.481Z,11.90
2018-04-13T07:46:18.940Z,11.90
2018-04-13T07:48:46.407Z,11.90
2018-04-13T07:51:13.867Z,12.00
2018-04-13T07:53:41.328Z,12.10
2018-04-13T07:56:08.792Z,12.20
2018-04-13T07:58:36.251Z,12.30
2018-04-13T08:01:03.739Z,12.40
2018-04-13T08:03:31.209Z,12.40
2018-04-13T08:05:59.445Z,12.50
2018-04-13T08:08:26.912Z,12.50
2018-04-13T08:10:54.372Z,12.60
2018-04-13T08:13:21.849Z,12.60
2018-04-13T08:15:49.317Z,12.70
2018-04-13T08:18:17.557Z,13.00
2018-04-13T08:20:45.025Z,13.00
2018-04-13T08:23:12.506Z,13.10
2018-04-13T08:25:40.742Z,13.30
2018-04-13T08:28:08.219Z,13.20
2018-04-13T08:30:35.711Z,13.40
2018-04-13T08:33:03.166Z,13.60
2018-04-13T08:35:30.753Z,13.70
2018-04-13T08:37:58.204Z,13.70
2018-04-13T08:40:25.672Z,13.50
2018-04-13T08:42:53.131Z,13.40
2018-04-13T08:45:20.604Z,13.50
2018-04-13T08:47:48.086Z,13.70
2018-04-13T08:50:17.223Z,14.10
2018-04-13T08:52:44.689Z,14.10
2018-04-13T08:55:12.157Z,14.40
2018-04-13T08:57:39.673Z,14.50
2018-04-13T09:00:07.100Z,14.80
2018-04-13T09:02:35.345Z,14.90
2018-04-13T09:05:02.809Z,14.90
2018-04-13T09:07:30.338Z,15.10
2018-04-13T09:09:57.796Z,15.00
2018-04-13T09:12:25.264Z,15.00
2018-04-13T09:14:52.741Z,15.00
2018-04-13T09:17:20.198Z,15.10
2018-04-13T09:19:47.685Z,14.70
2018-04-13T09:22:15.923Z,15.00
2018-04-13T09:24:43.400Z,15.00
2018-04-13T09:27:10.864Z,15.10
2018-04-13T09:29:38.324Z,15.10
2018-04-13T09:32:05.802Z,15.10
2018-04-13T09:34:34.971Z,15.40
2018-04-13T09:37:02.420Z,15.30
2018-04-13T09:39:29.887Z,15.50
2018-04-13T09:41:57.369Z,15.70
2018-04-13T09:44:25.679Z,15.80
2018-04-13T09:46:53.056Z,15.80
2018-04-13T09:49:20.520Z,16.00
2018-04-13T09:51:47.972Z,16.00
2018-04-13T09:54:15.441Z,15.70
2018-04-13T09:56:42.902Z,15.50
2018-04-13T09:59:10.380Z,15.40
2018-04-13T10:01:40.380Z,15.30
2018-04-13T10:04:13.455Z,15.50
2018-04-13T10:06:40.928Z,15.50
2018-04-13T10:09:09.153Z,15.70
2018-04-13T10:11:36.657Z,15.60
2018-04-13T10:14:04.116Z,15.80
2018-04-13T10:16:32.400Z,15.80
2018-04-13T10:19:00.629Z,15.40
2018-04-13T10:21:28.096Z,15.40
2018-04-13T10:23:55.567Z,15.40
2018-04-13T10:26:23.054Z,15.50
2018-04-13T10:28:51.284Z,15.60
2018-04-13T10:31:18.752Z,15.60
2018-04-13T10:33:46.228Z,15.50
2018-04-13T10:36:14.464Z,15.60
2018-04-13T10:38:41.924Z,15.60
2018-04-13T10:41:09.434Z,15.70
2018-04-13T10:43:37.953Z,15.70
2018-04-13T10:46:05.409Z,16.00
2018-04-13T10:48:33.373Z,16.10
2018-04-13T10:51:00.833Z,15.70
2018-04-13T10:53:28.298Z,15.80
2018-04-13T10:55:55.799Z,15.80
2018-04-13T10:58:23.265Z,15.80
2018-04-13T11:00:51.491Z,15.50
2018-04-13T11:03:18.972Z,15.40
2018-04-13T11:05:46.438Z,15.40
2018-04-13T11:08:13.908Z,15.50
2018-04-13T11:10:42.139Z,15.00
2018-04-13T11:13:09.608Z,15.00
2018-04-13T11:15:37.091Z,14.90
2018-04-13T11:18:05.319Z,14.90
2018-04-13T11:20:32.804Z,14.90
2018-04-13T11:23:00.264Z,15.10
2018-04-13T11:25:27.739Z,15.20
2018-04-13T11:27:55.987Z,15.40
2018-04-13T11:30:23.449Z,15.40
2018-04-13T11:32:50.917Z,15.40
2018-04-13T11:35:19.167Z,15.40
2018-04-13T11:37:47.388Z,15.50
2018-04-13T11:40:14.852Z,15.50
2018-04-13T11:42:42.341Z,15.40
2018-04-13T11:45:09.813Z,15.30
2018-04-13T11:47:37.288Z,15.50
2018-04-13T11:50:04.749Z,15.60
2018-04-13T11:52:32.209Z,15.80
2018-04-13T11:54:59.689Z,16.00
2018-04-13T12:00:01.192Z,15.80
2018-04-13T12:02:28.724Z,15.80
2018-04-13T12:04:56.371Z,15.70
2018-04-13T12:07:23.841Z,15.80
2018-04-13T12:09:51.296Z,15.70
2018-04-13T12:12:18.765Z,15.70
2018-04-13T12:14:46.248Z,15.40
2018-04-13T12:17:13.716Z,15.40
2018-04-13T12:19:41.186Z,15.40
2018-04-13T12:22:08.661Z,15.50
2018-04-13T12:24:37.911Z,15.30
2018-04-13T12:27:05.381Z,15.30
2018-04-13T12:29:32.869Z,15.20
2018-04-13T12:32:01.127Z,15.10
2018-04-13T12:34:28.581Z,15.10
2018-04-13T12:36:56.053Z,15.10
2018-04-13T12:39:23.520Z,15.30
2018-04-13T12:41:51.798Z,15.50
2018-04-13T12:44:19.215Z,15.50
2018-04-13T12:46:47.721Z,15.30
2018-04-13T12:49:15.185Z,15.20
2018-04-13T12:51:43.428Z,15.20
2018-04-13T12:54:10.903Z,15.20
2018-04-13T12:56:38.443Z,15.40
2018-04-13T12:59:06.621Z,15.00
2018-04-13T13:01:34.173Z,14.90
2018-04-13T13:04:01.632Z,14.80
2018-04-13T13:06:29.104Z,14.70
2018-04-13T13:08:57.264Z,15.00
2018-04-13T13:11:24.677Z,15.30
2018-04-13T13:13:52.152Z,15.30
2018-04-13T13:16:19.614Z,15.30
2018-04-13T13:18:47.095Z,15.20
2018-04-13T13:21:14.562Z,15.10
2018-04-13T13:23:42.011Z,15.20
2018-04-13T13:26:09.495Z,15.10
2018-04-13T13:28:37.921Z,15.20
2018-04-13T13:31:05.396Z,15.10
2018-04-13T13:33:32.965Z,14.80
2018-04-13T13:36:00.441Z,14.70
2018-04-13T13:38:28.689Z,14.30
2018-04-13T13:40:56.160Z,14.30
2018-04-13T13:43:23.644Z,14.50
2018-04-13T13:45:51.881Z,14.80
2018-04-13T13:48:19.386Z,14.80
2018-04-13T13:50:47.612Z,14.90
2018-04-13T13:53:15.082Z,14.80
2018-04-13T13:55:42.569Z,14.80
2018-04-13T13:58:10.024Z,14.50
2018-04-13T14:00:38.264Z,14.60
2018-04-13T14:03:05.749Z,14.60
2018-04-13T14:05:34.800Z,14.60
2018-04-13T14:08:02.262Z,14.60
2018-04-13T14:10:29.748Z,14.70
2018-04-13T14:12:57.210Z,14.70
2018-04-13T14:15:25.436Z,14.80
2018-04-13T14:17:52.945Z,14.80
2018-04-13T14:20:21.175Z,14.70
2018-04-13T14:22:48.660Z,14.70
2018-04-13T14:25:16.156Z,14.60
2018-04-13T14:27:43.618Z,14.70
2018-04-13T14:30:11.084Z,14.70
2018-04-13T14:32:38.889Z,14.60
2018-04-13T14:35:06.353Z,14.70
2018-04-13T14:37:33.871Z,14.80
2018-04-13T14:40:01.351Z,14.70
2018-04-13T14:42:28.836Z,14.70
2018-04-13T14:44:57.068Z,14.80
2018-04-13T14:47:24.550Z,14.80
2018-04-13T14:49:52.008Z,14.80
2018-04-13T14:52:19.465Z,14.70
2018-04-13T14:54:46.937Z,14.60
2018-04-13T14:57:15.169Z,14.50
2018-04-13T14:59:42.636Z,14.50
2018-04-13T15:02:10.127Z,14.50
2018-04-13T15:04:38.367Z,14.30
2018-04-13T15:07:05.842Z,14.30
2018-04-13T15:09:34.145Z,14.50
2018-04-13T15:12:02.376Z,14.10
2018-04-13T15:14:29.856Z,14.10
2018-04-13T15:16:57.318Z,14.00
2018-04-13T15:19:24.794Z,14.00
2018-04-13T15:21:53.040Z,14.00
2018-04-13T15:24:20.504Z,14.00
2018-04-13T15:26:47.983Z,14.00
2018-04-13T15:29:16.230Z,13.90
2018-04-13T15:31:43.716Z,13.90
2018-04-13T15:34:11.268Z,13.90
2018-04-13T15:36:38.687Z,13.90
2018-04-13T15:39:06.168Z,13.90
2018-04-13T15:41:33.637Z,13.70
2018-04-13T15:44:01.862Z,13.70
2018-04-13T15:46:29.333Z,13.70
2018-04-13T15:48:56.841Z,13.40
2018-04-13T15:51:25.310Z,13.20
2018-04-13T15:53:53.533Z,13.10
2018-04-13T15:56:21.020Z,13.10
2018-04-13T15:58:48.504Z,13.00
2018-04-13T16:01:15.971Z,13.00
2018-04-13T16:03:43.448Z,12.80
2018-04-13T16:06:10.932Z,12.90
2018-04-13T16:08:38.404Z,12.70
2018-04-13T16:11:05.894Z,12.80
2018-04-13T16:13:33.404Z,12.70
2018-04-13T16:16:01.674Z,12.50
2018-04-13T16:18:29.136Z,12.50
2018-04-13T16:20:56.624Z,12.70
2018-04-13T16:23:24.880Z,12.50
2018-04-13T16:25:52.344Z,12.50
2018-04-13T16:28:19.955Z,12.50
2018-04-13T16:30:47.933Z,12.40
2018-04-13T16:33:15.406Z,12.40
2018-04-13T16:35:42.868Z,12.30
2018-04-13T16:38:10.324Z,12.40
2018-04-13T16:40:37.799Z,12.40
2018-04-13T16:43:05.259Z,12.40
2018-04-13T16:45:32.718Z,12.30
2018-04-13T16:48:00.203Z,12.40
2018-04-13T16:50:27.692Z,12.60
2018-04-13T16:52:55.156Z,12.60
2018-04-13T16:55:22.632Z,12.60
2018-04-13T16:57:50.116Z,12.40
2018-04-13T17:00:18.353Z,12.50
2018-04-13T17:02:45.832Z,12.50
2018-04-13T17:05:13.291Z,12.40
2018-04-13T17:07:40.784Z,12.40
2018-04-13T17:10:08.236Z,12.40
2018-04-13T17:12:35.757Z,12.40
2018-04-13T17:15:03.240Z,12.20
2018-04-13T17:17:31.480Z,12.30
2018-04-13T17:19:58.945Z,12.30
2018-04-13T17:22:26.426Z,12.30
2018-04-13T17:24:54.657Z,12.20
2018-04-13T17:27:22.121Z,12.20
2018-04-13T17:29:49.623Z,12.20
2018-04-13T17:32:17.438Z,12.10
2018-04-13T17:34:44.905Z,12.10
2018-04-13T17:37:12.384Z,12.00
2018-04-13T17:39:40.638Z,12.00
2018-04-13T17:42:08.127Z,11.90
2018-04-13T17:44:36.364Z,11.90
2018-04-13T17:47:03.871Z,11.90
2018-04-13T17:49:31.333Z,11.90
2018-04-13T17:51:58.852Z,11.80
2018-04-13T17:54:26.314Z,11.70
2018-04-13T17:56:53.769Z,11.80
2018-04-13T17:59:21.260Z,11.90
2018-04-13T18:01:48.829Z,11.90
2018-04-13T18:04:16.291Z,11.80
2018-04-13T18:06:43.750Z,11.80
2018-04-13T18:09:11.228Z,11.80
2018-04-13T18:11:38.706Z,11.80
2018-04-13T18:14:06.168Z,11.80
2018-04-13T18:16:33.652Z,11.70
2018-04-13T18:19:01.230Z,11.80
2018-04-13T18:21:28.712Z,11.70
2018-04-13T18:23:56.190Z,11.70
2018-04-13T18:26:23.658Z,11.60
2018-04-13T18:28:51.132Z,11.60
2018-04-13T18:31:20.175Z,11.50
2018-04-13T18:33:47.660Z,11.50
2018-04-13T18:36:15.125Z,11.40
2018-04-13T18:38:42.672Z,11.30
2018-04-13T18:41:10.158Z,11.30
2018-04-13T18:43:38.391Z,11.20
2018-04-13T18:46:05.856Z,11.20
2018-04-13T18:48:33.348Z,11.10
2018-04-13T18:51:01.581Z,11.00
2018-04-13T18:53:29.060Z,11.00
2018-04-13T18:55:56.537Z,11.00
2018-04-13T18:58:24.796Z,10.90
2018-04-13T19:00:52.261Z,10.90
2018-04-13T19:03:20.507Z,10.80
2018-04-13T19:05:47.973Z,10.80
2018-04-13T19:08:15.494Z,10.80
2018-04-13T19:10:42.970Z,10.70
2018-04-13T19:13:10.449Z,10.70
2018-04-13T19:15:37.928Z,10.70
2018-04-13T19:18:06.171Z,10.50
2018-04-13T19:20:35.169Z,10.50
2018-04-13T19:23:02.614Z,10.50
2018-04-13T19:25:30.111Z,10.50
2018-04-13T19:27:58.356Z,10.50
2018-04-13T19:30:25.828Z,10.50
2018-04-13T19:32:55.800Z,10.40
2018-04-13T19:35:24.026Z,10.40
2018-04-13T19:37:52.264Z,10.40
2018-04-13T19:40:19.737Z,10.40
2018-04-13T19:42:47.201Z,10.40
2018-04-13T19:45:14.688Z,10.30
2018-04-13T19:47:42.263Z,10.30
2018-04-13T19:50:09.747Z,10.30
2018-04-13T19:52:37.269Z,10.30
2018-04-13T19:55:04.694Z,10.40
2018-04-13T19:57:33.736Z,10.30
2018-04-13T20:00:01.237Z,10.30
2018-04-13T20:02:28.684Z,10.30
2018-04-13T20:04:56.160Z,10.20
2018-04-13T20:07:24.404Z,10.10
2018-04-13T20:09:51.881Z,10.10
2018-04-13T20:12:19.344Z,10.10
2018-04-13T20:14:46.821Z,10.10
2018-04-13T20:17:15.091Z,10.10
2018-04-13T20:19:43.340Z,10.00
2018-04-13T20:22:10.812Z,10.00
2018-04-13T20:24:38.301Z,10.10
2018-04-13T20:27:05.817Z,10.10
2018-04-13T20:29:33.300Z,10.10
2018-04-13T20:32:01.576Z,10.10
2018-04-13T20:34:29.800Z,10.00
2018-04-13T20:36:57.285Z,10.00
2018-04-13T20:39:24.760Z,10.10
2018-04-13T20:41:53.036Z,10.00
2018-04-13T20:44:21.252Z,10.00
2018-04-13T20:46:48.729Z,10.00
2018-04-13T20:49:16.241Z,10.00
2018-04-13T20:51:43.666Z,10.00
2018-04-13T20:54:11.133Z,10.00
2018-04-13T20:56:39.361Z,10.00
2018-04-13T20:59:06.837Z,10.00
2018-04-13T21:01:35.210Z,10.00
2018-04-13T21:04:02.695Z,9.90
2018-04-13T21:06:30.955Z,9.90
2018-04-13T21:08:58.401Z,9.90
2018-04-13T21:11:25.869Z,9.90
2018-04-13T21:13:53.328Z,9.90
2018-04-13T21:16:20.785Z,9.90
2018-04-13T21:18:48.265Z,9.90
2018-04-13T21:21:16.517Z,9.90
2018-04-13T21:23:43.987Z,9.80
2018-04-13T21:26:12.224Z,9.80
2018-04-13T21:28:39.688Z,9.70
2018-04-13T21:31:07.158Z,9.80
2018-04-13T21:33:34.635Z,9.80
2018-04-13T21:36:02.875Z,9.70
2018-04-13T21:38:30.369Z,9.70
2018-04-13T21:40:58.605Z,9.60
2018-04-13T21:43:26.082Z,9.70
2018-04-13T21:45:53.558Z,9.60
2018-04-13T21:48:21.787Z,9.60
2018-04-13T21:50:49.253Z,9.60
2018-04-13T21:53:16.728Z,9.60
2018-04-13T21:55:44.192Z,9.60
2018-04-13T21:58:11.651Z,9.60
2018-04-13T22:00:39.101Z,9.60
2018-04-13T22:03:06.623Z,9.50
2018-04-13T22:05:34.807Z,9.50
2018-04-13T22:08:02.272Z,9.50
2018-04-13T22:10:29.724Z,9.50
2018-04-13T22:13:09.012Z,9.40
2018-04-13T22:15:36.520Z,9.40
2018-04-13T22:18:03.976Z,9.40
2018-04-13T22:20:31.453Z,9.40
2018-04-13T22:22:58.905Z,9.40
2018-04-13T22:25:26.360Z,9.40
2018-04-13T22:27:54.728Z,9.40
2018-04-13T22:30:22.200Z,9.40
2018-04-13T22:32:49.664Z,9.40
2018-04-13T22:35:17.108Z,9.40
2018-04-13T22:37:44.572Z,9.30
2018-04-13T22:40:12.393Z,9.30
2018-04-13T22:42:39.851Z,9.30
2018-04-13T22:45:07.309Z,9.20
2018-04-13T22:47:34.781Z,9.20
2018-04-13T22:50:02.242Z,9.10
2018-04-13T22:52:29.713Z,9.10
2018-04-13T22:54:57.178Z,9.10
2018-04-13T22:57:24.644Z,9.10
2018-04-13T22:59:52.119Z,9.00
2018-04-13T23:02:20.140Z,9.00
2018-04-13T23:04:47.646Z,9.00
2018-04-13T23:07:15.856Z,9.20
2018-04-13T23:09:43.316Z,9.10
2018-04-13T23:12:10.801Z,9.20
2018-04-13T23:14:38.261Z,9.30
2018-04-13T23:17:05.718Z,9.30
2018-04-13T23:19:33.176Z,9.30
2018-04-13T23:22:00.633Z,9.40
2018-04-13T23:24:28.100Z,9.40
2018-04-13T23:26:56.312Z,9.50
2018-04-13T23:29:23.775Z,9.50
2018-04-13T23:31:51.232Z,9.50
2018-04-13T23:34:18.680Z,9.50
2018-04-13T23:36:46.157Z,9.50
2018-04-13T23:39:14.420Z,9.50
2018-04-13T23:41:41.883Z,9.50
2018-04-13T23:44:09.351Z,9.50
2018-04-13T23:46:36.832Z,9.50
2018-04-13T23:49:04.289Z,9.50
2018-04-13T23:51:31.741Z,9.50
2018-04-13T23:53:59.212Z,9.60
2018-04-13T23:56:26.667Z,9.60
2018-04-13T23:58:54.897Z,9.50
